Time;durP1;ratioP1;P1;durP2;ratioP2;P2;SDS_P1;SDS_P2;PMS_P1;PMS_P2;Temp;Humidity;BMP_temperature;BMP_pressure;BME280_temperature;BME280_humidity;BME280_pressure;Samples;Min_cycle;Max_cycle;Signal;HPM_P1;HPM_P2
2022/10/21 00:00:50;;;;;;;1.13;0.94;;;;;;;8.61;85.78;100721.97;459026;115;923762;-78
2022/10/21 00:01:53;;;;;;;1.72;1.26;;;;;;;8.60;85.38;100720.28;458837;115;922607;-77
2022/10/21 00:02:57;;;;;;;2.51;1.09;;;;;;;8.58;85.48;100719.66;458910;115;930390;-78
2022/10/21 00:04:01;;;;;;;1.04;1.01;;;;;;;8.57;85.50;100730.72;459728;113;922968;-78
2022/10/21 00:05:05;;;;;;;1.12;1.11;;;;;;;8.55;85.23;100725.48;463006;114;922579;-77
2022/10/21 00:06:09;;;;;;;1.06;0.99;;;;;;;8.54;85.07;100729.27;463036;114;930104;-77
2022/10/21 00:07:12;;;;;;;2.20;0.94;;;;;;;8.54;85.24;100728.42;463113;114;922579;-78
2022/10/21 00:08:15;;;;;;;1.41;1.12;;;;;;;8.54;85.36;100728.42;463187;114;922969;-78
2022/10/21 00:09:18;;;;;;;2.84;1.20;;;;;;;8.55;85.37;100739.06;463144;114;922942;-77
2022/10/21 00:10:21;;;;;;;1.47;1.07;;;;;;;8.55;85.03;100730.91;463245;114;922494;-76
2022/10/21 00:11:24;;;;;;;1.02;1.00;;;;;;;8.54;84.95;100734.70;463183;114;922963;-77
2022/10/21 00:12:28;;;;;;;1.57;1.31;;;;;;;8.54;84.77;100737.41;463169;114;922552;-77
2022/10/21 00:13:33;;;;;;;1.42;1.15;;;;;;;8.53;84.38;100752.03;462969;114;923027;-76
2022/10/21 00:14:36;;;;;;;0.98;0.94;;;;;;;8.50;84.35;100749.69;462983;114;922518;-78
2022/10/21 00:15:39;;;;;;;1.06;1.00;;;;;;;8.47;84.30;100747.38;463187;114;922652;-76
2022/10/21 00:16:42;;;;;;;1.12;1.00;;;;;;;8.45;84.05;100738.58;463159;114;922852;-76
2022/10/21 00:17:45;;;;;;;8.61;0.99;;;;;;;8.42;83.87;100749.02;463143;114;923022;-78
2022/10/21 00:18:48;;;;;;;1.87;0.88;;;;;;;8.41;83.93;100750.04;463132;114;923072;-76
2022/10/21 00:19:50;;;;;;;1.02;0.80;;;;;;;8.38;84.05;100750.45;463144;114;922448;-76
2022/10/21 00:20:53;;;;;;;1.61;0.89;;;;;;;8.36;84.11;100745.20;463141;114;922788;-76
2022/10/21 00:21:56;;;;;;;0.86;0.85;;;;;;;8.36;84.13;100751.48;463134;114;922472;-75
2022/10/21 00:23:00;;;;;;;1.54;0.81;;;;;;;8.35;84.01;100749.80;463156;114;922939;-76
2022/10/21 00:24:03;;;;;;;0.84;0.79;;;;;;;8.33;84.09;100745.58;463095;114;922492;-76
2022/10/21 00:25:06;;;;;;;1.66;0.96;;;;;;;8.34;84.06;100755.41;463054;114;922527;-75
2022/10/21 00:26:12;;;;;;;1.91;0.82;;;;;;;8.34;83.95;100749.98;463046;114;922598;-76
2022/10/21 00:27:14;;;;;;;1.13;1.06;;;;;;;8.34;83.91;100764.41;462855;114;930335;-76
2022/10/21 00:28:19;;;;;;;0.90;0.84;;;;;;;8.33;83.53;100748.30;453889;116;923033;-76
2022/10/21 00:29:22;;;;;;;1.04;0.97;;;;;;;8.31;83.64;100755.82;454572;114;930341;-76
2022/10/21 00:30:25;;;;;;;1.52;1.05;;;;;;;8.31;83.75;100766.69;465126;114;922502;-76
2022/10/21 00:31:29;;;;;;;0.82;0.78;;;;;;;8.30;83.52;100765.00;465840;112;922929;-77
2022/10/21 00:32:32;;;;;;;0.82;0.82;;;;;;;8.28;83.31;100762.44;471318;112;923000;-75
2022/10/21 00:33:35;;;;;;;1.21;0.97;;;;;;;8.28;83.43;100767.03;471073;112;922491;-77
2022/10/21 00:34:41;;;;;;;1.19;1.09;;;;;;;8.28;83.43;100764.31;463028;114;922757;-77
2022/10/21 00:35:56;;;;;;;1.31;1.06;;;;;;;8.28;83.28;100767.03;462930;114;930087;-77
2022/10/21 00:36:59;;;;;;;1.27;1.17;;;;;;;8.27;83.37;100774.33;462911;114;922970;-76
2022/10/21 00:38:02;;;;;;;0.71;0.70;;;;;;;8.26;83.41;100772.68;463175;114;922910;-76
2022/10/21 00:39:05;;;;;;;2.02;1.02;;;;;;;8.26;83.38;100769.12;463116;114;923408;-76
2022/10/21 00:40:09;;;;;;;0.85;0.84;;;;;;;8.27;83.39;100770.80;463011;114;923247;-76
2022/10/21 00:41:14;;;;;;;0.75;0.72;;;;;;;8.27;83.06;100778.95;463042;114;922856;-76
2022/10/21 00:42:20;;;;;;;0.93;0.90;;;;;;;8.26;82.87;100779.98;462948;114;923526;-77
2022/10/21 00:43:24;;;;;;;2.44;0.93;;;;;;;8.24;82.55;100779.33;462899;114;922994;-76
2022/10/21 00:44:27;;;;;;;1.50;1.04;;;;;;;8.23;82.69;100774.92;463025;114;922539;-76
2022/10/21 00:45:30;;;;;;;1.74;0.82;;;;;;;8.22;82.61;100775.95;463126;114;930316;-76
2022/10/21 00:46:48;;;;;;;1.21;0.96;;;;;;;8.21;82.43;100780.58;463145;114;922462;-76
2022/10/21 00:48:16;;;;;;;0.92;0.82;;;;;;;8.21;82.53;100777.02;462814;114;922487;-76
2022/10/21 00:49:22;;;;;;;0.86;0.82;;;;;;;8.19;82.72;100776.36;462260;114;922593;-77
2022/10/21 00:50:34;;;;;;;1.33;1.18;;;;;;;8.19;82.64;100793.50;462894;114;922942;-76
2022/10/21 00:51:40;;;;;;;1.29;1.04;;;;;;;8.18;82.49;100791.81;462587;114;923022;-76
2022/10/21 00:52:43;;;;;;;1.20;1.04;;;;;;;8.17;82.48;100792.00;463033;114;922586;-77
2022/10/21 00:53:48;;;;;;;1.04;0.98;;;;;;;8.17;82.30;100797.42;463113;114;922496;-75
2022/10/21 00:54:54;;;;;;;2.59;1.10;;;;;;;8.17;82.30;100797.42;462946;114;922615;-75
2022/10/21 00:56:00;;;;;;;1.53;0.90;;;;;;;8.17;82.14;100792.00;462986;114;922500;-76
2022/10/21 00:57:03;;;;;;;1.11;1.01;;;;;;;8.18;82.21;100796.40;462968;114;922571;-76
2022/10/21 00:58:07;;;;;;;2.15;1.09;;;;;;;8.18;81.88;100799.11;463026;114;922541;-76
2022/10/21 00:59:12;;;;;;;1.34;1.24;;;;;;;8.18;81.66;100793.68;463061;114;922732;-79
2022/10/21 01:00:15;;;;;;;1.26;1.16;;;;;;;8.16;81.46;100793.87;462913;114;930100;-75
2022/10/21 01:01:18;;;;;;;1.12;1.09;;;;;;;8.15;81.41;100804.95;463148;114;922489;-77
2022/10/21 01:02:23;;;;;;;2.23;1.13;;;;;;;8.13;81.37;100794.27;462917;114;922926;-76
2022/10/21 01:03:29;;;;;;;1.06;1.02;;;;;;;8.11;81.17;100799.05;463093;114;922802;-76
2022/10/21 01:04:32;;;;;;;0.94;0.88;;;;;;;8.10;81.36;100791.11;456195;116;922617;-75
2022/10/21 01:05:38;;;;;;;1.77;0.93;;;;;;;8.11;81.52;100803.63;458526;112;922989;-76
2022/10/21 01:06:41;;;;;;;1.09;0.99;;;;;;;8.11;80.98;100809.06;471195;112;922619;-77
2022/10/21 01:07:49;;;;;;;1.74;1.04;;;;;;;8.10;81.07;100807.41;471297;112;922631;-78
2022/10/21 01:08:53;;;;;;;1.30;1.14;;;;;;;8.10;80.86;100815.55;471081;112;930314;-79
2022/10/21 01:09:56;;;;;;;1.34;1.05;;;;;;;8.10;81.01;100807.41;471228;112;922603;-76
2022/10/21 01:11:01;;;;;;;1.29;1.04;;;;;;;8.10;80.99;100823.70;471406;112;930162;-78
2022/10/21 01:12:07;;;;;;;1.32;1.06;;;;;;;8.08;80.85;100813.02;471244;112;922531;-77
2022/10/21 01:13:34;;;;;;;1.03;1.02;;;;;;;8.08;80.85;100813.02;470928;112;930104;-77
2022/10/21 01:14:47;;;;;;;1.79;1.53;;;;;;;8.09;80.64;100816.58;470690;112;922840;-77
2022/10/21 01:15:59;;;;;;;1.19;1.03;;;;;;;8.08;80.71;100818.45;470117;112;922492;-76
2022/10/21 01:17:27;;;;;;;1.33;1.11;;;;;;;8.07;80.58;100830.34;462887;114;922460;-76
2022/10/21 01:19:00;;;;;;;1.48;1.13;;;;;;;8.06;80.32;100816.95;459875;114;922487;-77
2022/10/21 01:20:18;;;;;;;1.38;1.28;;;;;;;8.03;80.59;100811.92;462464;114;922628;-75
2022/10/21 01:21:30;;;;;;;1.68;1.12;;;;;;;8.00;80.17;100818.56;462879;114;930137;-77
2022/10/21 01:22:36;;;;;;;1.21;1.09;;;;;;;7.96;80.35;100817.27;462958;114;922474;-77
2022/10/21 01:23:55;;;;;;;1.53;1.30;;;;;;;7.94;80.07;100817.45;462973;114;922633;-77
2022/10/21 01:25:33;;;;;;;1.54;1.44;;;;;;;7.92;79.85;100826.84;462949;114;923152;-78
2022/10/21 01:26:58;;;;;;;1.49;1.29;;;;;;;7.88;79.81;100818.22;462971;114;922661;-76
2022/10/21 01:28:13;;;;;;;1.51;1.13;;;;;;;7.84;79.88;100833.22;462969;114;922472;-77
2022/10/21 01:29:29;;;;;;;2.52;1.57;;;;;;;7.80;79.84;100831.92;461742;114;922509;-78
2022/10/21 01:30:47;;;;;;;1.44;1.34;;;;;;;7.78;79.71;100823.11;460137;114;922494;-76
2022/10/21 01:32:27;;;;;;;1.84;1.73;;;;;;;7.75;79.87;100837.08;462470;114;922902;-77
2022/10/21 01:33:42;;;;;;;2.11;1.50;;;;;;;7.73;79.93;100839.13;462923;114;922485;-76
2022/10/21 01:34:55;;;;;;;1.67;1.57;;;;;;;7.72;80.16;100842.88;462900;114;922803;-77
2022/10/21 01:36:16;;;;;;;1.67;1.57;;;;;;;7.71;80.43;100846.64;462725;114;923136;-77
2022/10/21 01:37:25;;;;;;;2.03;1.65;;;;;;;7.72;80.42;100848.30;462861;114;922668;-76
2022/10/21 01:38:35;;;;;;;1.61;1.51;;;;;;;7.72;80.21;100848.30;462867;114;922554;-75
2022/10/21 01:39:51;;;;;;;1.68;1.48;;;;;;;7.72;80.39;100848.30;462626;114;922495;-77
2022/10/21 01:41:24;;;;;;;1.74;1.62;;;;;;;7.72;80.37;100863.77;462624;114;922554;-77
2022/10/21 01:42:33;;;;;;;2.13;1.94;;;;;;;7.71;80.20;100854.78;462906;114;922673;-76
2022/10/21 01:43:48;;;;;;;1.68;1.39;;;;;;;7.69;80.20;100866.84;462924;114;922948;-77
2022/10/21 01:45:04;;;;;;;1.65;1.55;;;;;;;7.68;80.23;100868.72;462812;114;922991;-77
2022/10/21 01:46:14;;;;;;;1.94;1.38;;;;;;;7.68;80.25;100862.45;462973;114;922489;-77
2022/10/21 01:47:28;;;;;;;1.38;1.28;;;;;;;7.79;80.21;100870.11;482453;110;946776;-77
2022/10/21 01:48:34;;;;;;;2.02;1.51;;;;;;;7.68;80.29;100874.14;472237;112;922507;-76
2022/10/21 01:49:41;;;;;;;1.92;1.63;;;;;;;7.68;80.42;100887.72;465359;114;922449;-76
2022/10/21 01:50:48;;;;;;;1.88;1.65;;;;;;;7.69;80.08;100874.98;465387;114;922947;-76
2022/10/21 01:51:52;;;;;;;1.77;1.67;;;;;;;7.68;80.08;100886.88;464270;113;923307;-76
2022/10/21 01:52:58;;;;;;;1.55;1.45;;;;;;;7.68;80.01;100879.57;463198;114;922541;-77
2022/10/21 01:54:11;;;;;;;1.46;1.35;;;;;;;7.68;80.06;100884.16;463049;114;922476;-76
2022/10/21 01:55:17;;;;;;;1.69;1.53;;;;;;;7.68;80.22;100885.00;463039;114;922652;-74
2022/10/21 01:56:21;;;;;;;1.84;1.51;;;;;;;7.66;80.17;100892.51;463023;114;922497;-78
2022/10/21 01:57:28;;;;;;;1.70;1.60;;;;;;;7.68;80.24;100895.02;463105;114;922453;-79
2022/10/21 01:58:34;;;;;;;1.94;1.53;;;;;;;7.67;80.33;100898.75;462958;114;922566;-77
2022/10/21 01:59:40;;;;;;;3.16;1.86;;;;;;;7.67;79.74;100898.75;463021;114;922653;-77
2022/10/21 02:00:43;;;;;;;1.96;1.79;;;;;;;7.66;79.73;100906.08;463008;114;923005;-76
2022/10/21 02:01:48;;;;;;;1.76;1.55;;;;;;;7.65;79.76;100909.81;463745;114;922540;-77
2022/10/21 02:02:51;;;;;;;1.48;1.38;;;;;;;7.66;80.01;100910.66;465397;114;922590;-77
2022/10/21 02:03:58;;;;;;;1.40;1.30;;;;;;;7.69;80.04;100924.69;465501;114;924910;-80
2022/10/21 02:05:04;;;;;;;1.36;1.25;;;;;;;7.70;79.86;100915.52;465364;114;922666;-78
2022/10/21 02:06:08;;;;;;;1.71;1.61;;;;;;;7.71;79.62;100921.80;465146;114;922495;-76
2022/10/21 02:07:11;;;;;;;1.98;1.47;;;;;;;7.72;79.77;100918.06;465411;114;922522;-77
2022/10/21 02:08:14;;;;;;;1.74;1.41;;;;;;;7.74;79.97;100926.83;465548;114;922514;-79
2022/10/21 02:09:17;;;;;;;1.52;1.38;;;;;;;7.74;79.97;100926.83;465534;113;922494;-78
2022/10/21 02:10:23;;;;;;;1.86;1.42;;;;;;;7.75;79.70;100928.52;465490;114;923172;-77
2022/10/21 02:11:28;;;;;;;1.62;1.52;;;;;;;7.75;79.71;100934.80;465371;114;922481;-75
2022/10/21 02:12:34;;;;;;;1.71;1.61;;;;;;;7.75;79.76;100926.66;465326;114;922515;-77
2022/10/21 02:13:57;;;;;;;1.99;1.58;;;;;;;7.78;79.92;100939.84;465315;113;922990;-78
2022/10/21 02:15:01;;;;;;;1.62;1.52;;;;;;;7.79;79.89;100937.97;465371;114;922508;-78
2022/10/21 02:16:08;;;;;;;1.43;1.33;;;;;;;7.82;79.79;100930.31;464732;114;922580;-76
2022/10/21 02:17:14;;;;;;;1.57;1.47;;;;;;;7.82;79.70;100941.16;463022;114;930146;-77
2022/10/21 02:18:20;;;;;;;1.15;1.04;;;;;;;7.83;79.61;100950.13;463139;114;922521;-78
2022/10/21 02:19:24;;;;;;;1.52;1.39;;;;;;;7.83;79.52;100950.97;463133;114;922529;-77
2022/10/21 02:20:30;;;;;;;1.64;1.49;;;;;;;7.82;79.42;100949.31;463245;114;922437;-77
2022/10/21 02:21:35;;;;;;;1.73;1.63;;;;;;;7.82;79.41;100957.45;463085;114;922559;-78
2022/10/21 02:22:41;;;;;;;1.56;1.46;;;;;;;7.83;79.38;100959.11;463078;114;922556;-79
2022/10/21 02:23:56;;;;;;;2.09;1.42;;;;;;;7.84;79.50;100959.95;463038;114;923066;-77
2022/10/21 02:25:06;;;;;;;1.64;1.54;;;;;;;7.84;79.48;100959.95;460731;114;922792;-77
2022/10/21 02:26:10;;;;;;;1.51;1.41;;;;;;;7.86;79.35;100963.34;462856;114;922899;-78
2022/10/21 02:27:13;;;;;;;2.19;1.48;;;;;;;7.85;79.37;100965.21;463065;114;922958;-77
2022/10/21 02:28:17;;;;;;;1.52;1.41;;;;;;;7.84;79.31;100963.52;463204;114;922831;-76
2022/10/21 02:29:23;;;;;;;1.45;1.34;;;;;;;7.85;79.33;100967.08;463126;114;922549;-76
2022/10/21 02:30:30;;;;;;;1.73;1.58;;;;;;;7.85;79.35;100965.21;456816;114;922941;-75
2022/10/21 02:31:45;;;;;;;1.43;1.33;;;;;;;7.87;79.36;100968.59;457384;114;922521;-78
2022/10/21 02:32:55;;;;;;;1.41;1.33;;;;;;;7.87;79.38;100967.75;464890;114;922628;-77
2022/10/21 02:34:01;;;;;;;2.93;1.42;;;;;;;7.88;79.34;100964.00;465361;113;923108;-76
2022/10/21 02:35:24;;;;;;;1.52;1.42;;;;;;;7.88;78.86;100983.01;465416;114;922587;-77
2022/10/21 02:36:43;;;;;;;1.73;1.46;;;;;;;7.86;78.93;100977.77;464585;114;922549;-77
2022/10/21 02:37:58;;;;;;;1.43;1.33;;;;;;;7.85;78.98;100986.92;464319;114;923454;-76
2022/10/21 02:39:05;;;;;;;1.71;1.61;;;;;;;7.83;79.08;100986.26;465340;113;922535;-76
2022/10/21 02:40:38;;;;;;;1.38;1.33;;;;;;;7.82;79.12;100984.60;465108;114;922455;-76
2022/10/21 02:41:43;;;;;;;1.74;1.64;;;;;;;7.82;78.85;100998.17;465319;114;922634;-76
2022/10/21 02:42:55;;;;;;;1.67;1.33;;;;;;;7.81;78.68;100992.92;465391;114;922530;-76
2022/10/21 02:44:01;;;;;;;1.83;1.71;;;;;;;7.78;78.86;101001.42;465354;113;922685;-77
2022/10/21 02:45:05;;;;;;;1.63;1.53;;;;;;;7.77;78.76;100995.18;465279;114;922525;-76
2022/10/21 02:46:11;;;;;;;2.26;1.48;;;;;;;7.77;78.89;101000.61;465467;114;922387;-76
2022/10/21 02:47:15;;;;;;;1.66;1.56;;;;;;;7.78;78.99;101004.14;465294;114;922526;-76
2022/10/21 02:48:18;;;;;;;1.61;1.51;;;;;;;7.78;78.89;100991.41;465482;114;922452;-76
2022/10/21 02:49:21;;;;;;;1.83;1.73;;;;;;;7.79;78.84;101000.40;465550;113;922471;-76
2022/10/21 02:50:24;;;;;;;1.86;1.75;;;;;;;7.77;78.76;101006.03;465599;114;922924;-76
2022/10/21 02:51:27;;;;;;;2.28;2.06;;;;;;;7.77;78.70;101002.48;465556;114;922846;-76
2022/10/21 02:52:30;;;;;;;1.67;1.57;;;;;;;7.76;78.85;101011.64;465544;114;922784;-76
2022/10/21 02:53:33;;;;;;;1.66;1.55;;;;;;;7.76;78.89;101020.63;465582;114;922581;-76
2022/10/21 02:54:36;;;;;;;1.77;1.67;;;;;;;7.78;78.74;101021.27;465444;114;923028;-77
2022/10/21 02:55:39;;;;;;;1.81;1.71;;;;;;;7.78;78.55;101012.28;465490;114;930327;-76
2022/10/21 02:56:42;;;;;;;1.35;1.26;;;;;;;7.77;78.59;101016.05;465538;114;922509;-75
2022/10/21 02:57:45;;;;;;;1.97;1.79;;;;;;;7.76;78.36;101017.92;465486;112;922944;-75
2022/10/21 02:58:48;;;;;;;1.70;1.60;;;;;;;7.75;78.52;101018.94;470360;112;923455;-77
2022/10/21 02:59:51;;;;;;;2.21;1.61;;;;;;;7.75;78.53;101018.09;470439;112;922507;-76
2022/10/21 03:00:54;;;;;;;1.51;1.41;;;;;;;7.73;78.51;101015.56;470433;112;922640;-76
2022/10/21 03:01:57;;;;;;;1.86;1.44;;;;;;;7.73;78.22;101026.41;470295;112;922946;-76
2022/10/21 03:03:00;;;;;;;1.42;1.32;;;;;;;7.73;78.29;101029.13;470448;112;923094;-76
2022/10/21 03:04:03;;;;;;;1.64;1.53;;;;;;;7.73;78.35;101025.57;470367;112;922980;-76
2022/10/21 03:05:06;;;;;;;1.17;1.17;;;;;;;7.72;78.47;101030.15;470466;112;922479;-75
2022/10/21 03:06:11;;;;;;;1.29;1.26;;;;;;;7.73;78.54;101036.42;470393;112;923003;-76
2022/10/21 03:07:14;;;;;;;1.83;1.40;;;;;;;7.74;78.59;101029.98;470289;112;922434;-76
2022/10/21 03:08:17;;;;;;;1.72;1.52;;;;;;;7.73;78.54;101037.27;470438;112;922779;-75
2022/10/21 03:09:20;;;;;;;1.54;1.44;;;;;;;7.73;78.45;101036.42;470458;112;922584;-75
2022/10/21 03:10:23;;;;;;;1.69;1.59;;;;;;;7.72;78.59;101041.01;470447;112;922888;-76
2022/10/21 03:11:25;;;;;;;1.54;1.41;;;;;;;7.72;78.41;101041.01;470447;112;922614;-76
2022/10/21 03:12:28;;;;;;;2.58;2.03;;;;;;;7.72;78.43;101054.58;470435;112;922558;-76
2022/10/21 03:13:31;;;;;;;2.61;1.57;;;;;;;7.70;78.36;101051.23;470380;112;923552;-76
2022/10/21 03:14:34;;;;;;;1.80;1.70;;;;;;;7.70;78.49;101050.37;470415;112;923008;-76
2022/10/21 03:15:37;;;;;;;3.36;1.52;;;;;;;7.69;78.53;101051.41;470426;112;922961;-77
2022/10/21 03:16:40;;;;;;;1.67;1.57;;;;;;;7.69;78.52;101060.39;465750;112;922534;-76
2022/10/21 03:17:43;;;;;;;2.64;1.74;;;;;;;7.68;78.55;101055.98;465478;114;922577;-76
2022/10/21 03:18:46;;;;;;;1.94;1.79;;;;;;;7.68;78.66;101058.70;465436;113;923207;-76
2022/10/21 03:19:49;;;;;;;1.76;1.66;;;;;;;7.69;78.65;101060.39;465484;114;922947;-76
2022/10/21 03:20:52;;;;;;;3.06;1.90;;;;;;;7.69;78.60;101060.39;465433;114;922829;-76
2022/10/21 03:21:55;;;;;;;1.68;1.58;;;;;;;7.69;78.63;101060.39;465480;114;922430;-77
2022/10/21 03:22:57;;;;;;;1.65;1.55;;;;;;;7.70;78.72;101067.52;465466;114;922511;-76
2022/10/21 03:24:01;;;;;;;1.81;1.70;;;;;;;7.71;78.70;101061.06;465478;114;922540;-76
2022/10/21 03:25:04;;;;;;;1.47;1.36;;;;;;;7.72;78.73;101061.91;465530;114;922461;-76
2022/10/21 03:26:08;;;;;;;1.48;1.38;;;;;;;7.75;78.80;101058.81;465390;114;922494;-76
2022/10/21 03:27:11;;;;;;;1.69;1.59;;;;;;;7.77;78.83;101063.05;465430;114;922692;-78
2022/10/21 03:28:14;;;;;;;1.91;1.75;;;;;;;7.79;78.70;101060.13;465495;114;922908;-74
2022/10/21 03:29:17;;;;;;;1.64;1.54;;;;;;;7.80;78.60;101061.81;465467;114;922444;-77
2022/10/21 03:30:20;;;;;;;2.15;1.49;;;;;;;7.80;78.54;101062.66;457701;114;922906;-77
2022/10/21 03:31:23;;;;;;;1.44;1.34;;;;;;;7.80;78.44;101064.53;455301;116;923222;-76
2022/10/21 03:32:26;;;;;;;2.41;1.48;;;;;;;7.79;78.44;101058.25;465423;114;922478;-79
2022/10/21 03:33:29;;;;;;;2.09;1.47;;;;;;;7.80;78.20;101064.53;465413;114;922978;-76
2022/10/21 03:34:32;;;;;;;3.41;1.41;;;;;;;7.79;78.01;101066.39;457483;112;922479;-77
2022/10/21 03:35:35;;;;;;;1.70;1.59;;;;;;;7.77;78.10;101071.19;457321;116;922534;-76
2022/10/21 03:36:38;;;;;;;1.73;1.63;;;;;;;7.77;78.19;101073.90;457258;116;922973;-76
2022/10/21 03:37:41;;;;;;;1.57;1.47;;;;;;;7.78;78.28;101072.00;457265;116;922568;-76
2022/10/21 03:38:44;;;;;;;2.02;1.65;;;;;;;7.78;78.36;101077.42;457266;116;923035;-76
2022/10/21 03:39:47;;;;;;;1.61;1.51;;;;;;;7.79;78.32;101077.25;457254;116;922574;-76
2022/10/21 03:40:50;;;;;;;1.89;1.79;;;;;;;7.80;78.22;101078.94;457294;116;923523;-76
2022/10/21 03:41:53;;;;;;;1.52;1.42;;;;;;;7.81;78.11;101074.36;457212;116;922502;-76
2022/10/21 03:42:57;;;;;;;2.06;1.77;;;;;;;7.81;77.97;101082.51;457298;116;924093;-76
2022/10/21 03:44:00;;;;;;;2.35;2.15;;;;;;;7.80;78.03;101081.66;457216;116;922829;-76
2022/10/21 03:45:03;;;;;;;1.56;1.46;;;;;;;7.81;78.03;101085.22;448149;117;922681;-77
2022/10/21 03:46:06;;;;;;;1.77;1.67;;;;;;;7.81;77.94;101085.22;448245;116;923041;-76
2022/10/21 03:47:09;;;;;;;1.88;1.75;;;;;;;7.81;77.94;101085.22;457216;116;930978;-76
2022/10/21 03:48:12;;;;;;;1.95;1.85;;;;;;;7.82;78.06;101085.05;454403;114;922524;-76
2022/10/21 03:49:15;;;;;;;2.04;1.94;;;;;;;7.83;77.99;101086.70;454393;116;922602;-76
2022/10/21 03:50:20;;;;;;;2.69;2.06;;;;;;;7.84;77.76;101084.84;453742;116;922693;-77
2022/10/21 03:51:25;;;;;;;2.33;2.13;;;;;;;7.84;77.74;101085.69;453726;116;923020;-76
2022/10/21 03:52:28;;;;;;;2.70;2.49;;;;;;;7.85;77.79;101091.95;449762;118;922501;-76
2022/10/21 03:53:30;;;;;;;2.27;2.09;;;;;;;7.86;77.83;101091.78;449769;118;923016;-75
2022/10/21 03:54:35;;;;;;;2.17;1.98;;;;;;;7.88;77.60;101100.56;453064;115;922545;-77
2022/10/21 03:55:38;;;;;;;3.29;2.26;;;;;;;7.89;77.62;101104.13;461456;115;922532;-76
2022/10/21 03:56:41;;;;;;;2.38;2.20;;;;;;;7.88;77.65;101095.14;461424;115;922998;-77
2022/10/21 03:57:44;;;;;;;2.15;1.96;;;;;;;7.89;77.66;101107.69;461401;115;922797;-76
2022/10/21 03:58:47;;;;;;;2.57;2.36;;;;;;;7.89;77.54;101104.97;461337;115;922935;-77
2022/10/21 03:59:50;;;;;;;2.04;1.87;;;;;;;7.88;77.47;101106.00;461416;115;922444;-76
2022/10/21 04:00:54;;;;;;;2.11;2.01;;;;;;;7.89;77.56;101104.13;461422;115;922998;-76
2022/10/21 04:01:57;;;;;;;1.79;1.69;;;;;;;7.90;77.58;101109.38;461314;115;923091;-77
2022/10/21 04:03:00;;;;;;;3.45;2.00;;;;;;;7.92;77.57;101115.48;461424;115;922585;-76
2022/10/21 04:04:03;;;;;;;2.14;1.98;;;;;;;7.92;77.47;101115.48;461403;115;922931;-77
2022/10/21 04:05:07;;;;;;;2.01;1.84;;;;;;;7.92;77.27;101112.77;461459;115;923465;-77
2022/10/21 04:06:10;;;;;;;2.47;2.27;;;;;;;7.92;77.19;101110.05;461342;115;923022;-77
2022/10/21 04:07:13;;;;;;;2.69;1.88;;;;;;;7.91;77.18;101115.66;461412;115;922536;-76
2022/10/21 04:08:16;;;;;;;1.86;1.72;;;;;;;7.91;77.23;101116.50;461448;115;922476;-77
2022/10/21 04:09:19;;;;;;;2.37;1.83;;;;;;;7.91;77.22;101112.95;461460;115;923129;-77
2022/10/21 04:10:22;;;;;;;1.78;1.68;;;;;;;7.92;77.29;101122.78;461449;115;922580;-77
2022/10/21 04:11:25;;;;;;;2.71;1.72;;;;;;;7.93;77.36;101121.77;461501;115;922426;-77
2022/10/21 04:12:28;;;;;;;1.92;1.72;;;;;;;7.93;77.36;101128.04;461431;115;922535;-76
2022/10/21 04:13:31;;;;;;;2.06;1.73;;;;;;;7.95;77.29;101134.11;461416;115;923134;-78
2022/10/21 04:14:34;;;;;;;3.35;2.02;;;;;;;7.95;77.18;101139.53;461417;115;922494;-77
2022/10/21 04:15:37;;;;;;;2.04;1.91;;;;;;;7.95;77.03;101131.39;452835;117;922507;-77
2022/10/21 04:16:40;;;;;;;1.89;1.76;;;;;;;7.95;76.91;101138.69;446052;117;922573;-77
2022/10/21 04:17:46;;;;;;;2.04;1.93;;;;;;;7.93;76.66;101138.05;453483;117;922691;-77
2022/10/21 04:18:49;;;;;;;2.15;1.86;;;;;;;7.90;76.70;101141.97;453261;117;922663;-77
2022/10/21 04:19:52;;;;;;;1.82;1.72;;;;;;;7.89;76.65;101153.00;453506;117;923147;-77
2022/10/21 04:20:55;;;;;;;2.02;1.92;;;;;;;7.87;76.75;101150.49;453474;117;922788;-76
2022/10/21 04:21:58;;;;;;;1.66;1.56;;;;;;;7.86;76.70;101143.37;453515;117;922609;-76
2022/10/21 04:23:01;;;;;;;1.98;1.82;;;;;;;7.86;76.60;101143.37;453503;117;922741;-75
2022/10/21 04:24:04;;;;;;;2.03;1.89;;;;;;;7.86;76.81;101148.80;453413;117;922934;-77
2022/10/21 04:25:07;;;;;;;1.72;1.62;;;;;;;7.86;76.69;101145.23;453508;117;922822;-76
2022/10/21 04:26:11;;;;;;;2.01;1.90;;;;;;;7.86;76.47;101159.66;453414;117;922538;-76
2022/10/21 04:27:14;;;;;;;1.87;1.77;;;;;;;7.85;76.48;101157.96;453431;117;930880;-76
2022/10/21 04:28:17;;;;;;;1.94;1.84;;;;;;;7.84;76.41;101158.14;453496;117;922778;-76
2022/10/21 04:29:20;;;;;;;2.22;2.01;;;;;;;7.81;76.57;101162.08;453542;117;922571;-77
2022/10/21 04:30:23;;;;;;;2.12;1.92;;;;;;;7.82;76.40;101157.50;456773;116;922925;-75
2022/10/21 04:31:26;;;;;;;2.12;2.02;;;;;;;7.80;76.41;101154.11;457583;116;922861;-79
2022/10/21 04:32:30;;;;;;;2.66;2.44;;;;;;;7.78;76.38;101159.71;456855;116;922994;-77
2022/10/21 04:33:33;;;;;;;2.17;2.01;;;;;;;7.77;76.54;101171.63;457584;114;922478;-77
2022/10/21 04:34:36;;;;;;;2.42;2.21;;;;;;;7.78;76.33;101170.57;462371;114;922416;-75
2022/10/21 04:35:39;;;;;;;2.26;1.99;;;;;;;7.77;76.20;101179.77;462373;114;922546;-78
2022/10/21 04:36:42;;;;;;;2.10;1.98;;;;;;;7.75;76.42;101179.09;462372;114;922625;-78
2022/10/21 04:37:45;;;;;;;2.44;2.27;;;;;;;7.76;76.52;101182.66;462348;114;922552;-79
2022/10/21 04:38:48;;;;;;;2.26;2.10;;;;;;;7.77;76.68;101181.63;462338;114;922422;-74
2022/10/21 04:39:52;;;;;;;1.93;1.83;;;;;;;7.78;76.72;101186.86;462246;114;922805;-77
2022/10/21 04:40:58;;;;;;;2.52;2.32;;;;;;;7.80;76.60;101182.10;462370;114;922959;-77
2022/10/21 04:42:01;;;;;;;2.07;1.97;;;;;;;7.80;76.60;101181.25;462055;114;923051;-78
2022/10/21 04:43:04;;;;;;;4.17;2.37;;;;;;;7.79;76.48;101184.98;462355;114;922756;-78
2022/10/21 04:44:07;;;;;;;2.70;2.50;;;;;;;7.79;76.50;101193.13;462321;114;922479;-77
2022/10/21 04:45:10;;;;;;;2.59;2.39;;;;;;;7.78;76.51;101192.28;462410;114;922756;-78
2022/10/21 04:46:15;;;;;;;2.59;2.39;;;;;;;7.80;76.14;101194.83;462378;114;923048;-79
2022/10/21 04:47:18;;;;;;;2.23;2.13;;;;;;;7.78;76.07;101192.28;462230;114;923013;-77
2022/10/21 04:48:22;;;;;;;2.33;2.18;;;;;;;7.77;76.12;101192.49;462265;114;922523;-77
2022/10/21 04:49:25;;;;;;;2.42;2.31;;;;;;;7.75;76.19;101187.23;462176;114;922644;-76
2022/10/21 04:50:27;;;;;;;2.62;2.29;;;;;;;7.75;76.32;101189.95;462146;114;922815;-76
2022/10/21 04:51:32;;;;;;;2.42;2.22;;;;;;;7.75;76.32;101189.10;460489;115;922541;-77
2022/10/21 04:52:36;;;;;;;1.83;1.70;;;;;;;7.76;76.29;101196.23;446276;119;922936;-77
2022/10/21 04:53:39;;;;;;;2.68;2.36;;;;;;;7.76;76.23;101197.08;441322;120;922517;-76
2022/10/21 04:54:42;;;;;;;2.52;2.31;;;;;;;7.76;76.21;101196.23;435988;121;930394;-78
2022/10/21 04:55:45;;;;;;;3.04;2.49;;;;;;;7.75;76.26;101199.96;438473;121;922878;-76
2022/10/21 04:56:48;;;;;;;2.54;2.28;;;;;;;7.74;76.17;101204.54;441472;120;922809;-77
2022/10/21 04:57:51;;;;;;;2.94;2.71;;;;;;;7.73;76.24;101213.70;435974;121;922538;-79
2022/10/21 04:58:54;;;;;;;2.26;2.12;;;;;;;7.73;76.23;101227.28;438365;121;922692;-77
2022/10/21 04:59:57;;;;;;;2.84;2.61;;;;;;;7.72;76.27;101208.48;441329;120;923430;-78
2022/10/21 05:01:00;;;;;;;3.06;2.71;;;;;;;7.71;76.29;101221.20;435961;121;922845;-76
2022/10/21 05:02:03;;;;;;;2.77;2.57;;;;;;;7.70;76.23;101224.94;446426;119;922571;-77
2022/10/21 05:03:06;;;;;;;2.49;2.33;;;;;;;7.69;76.42;101228.67;446283;119;922912;-77
2022/10/21 05:04:09;;;;;;;2.99;2.79;;;;;;;7.68;76.58;101235.12;446209;119;922579;-77
2022/10/21 05:05:12;;;;;;;2.89;2.69;;;;;;;7.68;76.74;101235.12;446203;119;922629;-76
2022/10/21 05:06:16;;;;;;;3.39;2.80;;;;;;;7.69;76.86;101234.10;446204;119;922433;-78